Terminal Aerodrome Forecast
Issued by NWS La Crosse, WI

Home | Current Version | Previous Version | Text Only | Print | Product List | Glossary On
Versions: 1 2 3 4 5 6 7 8 9 10 11 12 13 14 15 16 17 18 19 20 21 22 23 24 25 26 27 28 29
000
FTUS43 KARX 301048 AAD
TAFLSE
TAF AMD
KLSE 301048Z 3011/3106 VRB03KT 3SM BR BKN003
      TEMPO 3011/3012 1 1/2SM BR
     FM301400 26005KT P6SM SCT015 BKN200
     FM301600 27005KT P6SM BKN035
     FM301900 30007KT P6SM SCT035 BKN250
     FM310000 34003KT P6SM FEW250=

USA.gov is the U.S. government's official web portal to all federal, state and local government web resources and services.